Wheaton, Missouri
Current Conditions -  °F | °C
As of 1:35 PM on Thursday 23 Oct 2014 (Local Time) from KHFJ Reporting Station
Overcast Overcast  
Wind Chill: 57°   Ceiling: 800
Heat Index: 57°   Visibility: 10mi
Dew Point: 54°   Wind: 12mph
Humidity: 88%   Direction: 220°SW
Pressure: 30.15"   Gusts: NA
Location:  36.76°N, 94.06°W
Report Text: KHFJ 231835Z AUTO 22010KT 10SM OVC008 14/12 A3015 RMK AO2
Loading
Personal Weather Stations






























Interactive Weather Map
Tropical Storm Tracking
New forecast layout! Learn more

10-Day Weather Forecast

Advertisements
Track Severe Weather on mobile